createdAt,value
2022-10-12T00:00:21.533Z,12.65
2022-10-12T00:01:23.628Z,12.40
2022-10-12T00:02:25.291Z,11.30
2022-10-12T00:03:26.941Z,12.13
2022-10-12T00:04:28.945Z,11.35
2022-10-12T00:05:30.589Z,14.20
2022-10-12T00:06:32.299Z,11.63
2022-10-12T00:07:33.956Z,12.98
2022-10-12T00:08:37.800Z,10.85
2022-10-12T00:09:39.539Z,11.00
2022-10-12T00:10:44.733Z,10.05
2022-10-12T00:11:46.388Z,10.77
2022-10-12T00:12:48.357Z,9.25
2022-10-12T00:13:50.218Z,10.68
2022-10-12T00:14:51.971Z,11.85
2022-10-12T00:15:53.789Z,9.88
2022-10-12T00:16:55.603Z,11.40
2022-10-12T00:17:57.238Z,10.05
2022-10-12T00:18:59.517Z,14.45
2022-10-12T00:20:01.251Z,13.52
2022-10-12T00:21:12.937Z,10.07
2022-10-12T00:22:14.630Z,10.93
2022-10-12T00:23:16.424Z,11.77
2022-10-12T00:24:18.266Z,12.88
2022-10-12T00:25:19.916Z,12.30
2022-10-12T00:26:23.601Z,12.43
2022-10-12T00:27:25.310Z,9.30
2022-10-12T00:28:27.021Z,10.30
2022-10-12T00:29:28.817Z,13.13
2022-10-12T00:30:31.065Z,11.50
2022-10-12T00:31:32.946Z,12.60
2022-10-12T00:32:34.817Z,13.13
2022-10-12T00:33:38.598Z,11.73
2022-10-12T00:34:40.317Z,12.13
2022-10-12T00:35:42.133Z,12.95
2022-10-12T00:36:44.222Z,12.05
2022-10-12T00:37:45.960Z,10.50
2022-10-12T00:38:49.340Z,11.50
2022-10-12T00:39:51.013Z,10.35
2022-10-12T00:40:52.704Z,10.73
2022-10-12T00:41:54.383Z,11.30
2022-10-12T00:42:56.387Z,12.27
2022-10-12T00:43:59.090Z,12.07
2022-10-12T00:45:01.001Z,11.30
2022-10-12T00:46:06.950Z,11.05
2022-10-12T00:47:36.796Z,9.32
2022-10-12T00:48:39.750Z,11.00
2022-10-12T00:49:43.093Z,12.73
2022-10-12T00:50:44.845Z,9.30
2022-10-12T00:51:54.354Z,12.45
2022-10-12T00:53:00.115Z,12.20
2022-10-12T00:54:06.394Z,10.55
2022-10-12T00:55:10.596Z,10.30
2022-10-12T00:56:18.124Z,12.40
2022-10-12T00:57:21.521Z,9.73
2022-10-12T00:58:23.422Z,14.32
2022-10-12T00:59:30.985Z,11.55
2022-10-12T01:00:32.868Z,10.32
2022-10-12T01:01:36.293Z,9.38
2022-10-12T01:02:42.288Z,11.70
2022-10-12T01:03:44.597Z,12.13
2022-10-12T01:04:46.609Z,10.77
2022-10-12T01:05:48.595Z,8.30
2022-10-12T01:06:51.170Z,11.13
2022-10-12T01:07:52.810Z,10.13
2022-10-12T01:08:55.785Z,11.88
2022-10-12T01:09:57.468Z,9.55
2022-10-12T01:10:59.297Z,11.25
2022-10-12T01:12:03.335Z,13.00
2022-10-12T01:13:05.983Z,10.82
2022-10-12T01:14:07.831Z,11.10
2022-10-12T01:15:10.626Z,13.02
2022-10-12T01:16:32.417Z,9.95
2022-10-12T01:17:52.744Z,8.18
2022-10-12T01:19:14.000Z,11.93
2022-10-12T01:20:34.364Z,12.30
2022-10-12T01:21:45.841Z,15.48
2022-10-12T01:23:18.669Z,12.68
2022-10-12T01:24:34.436Z,10.25
2022-10-12T01:26:05.643Z,10.35
2022-10-12T01:27:22.127Z,14.38
2022-10-12T01:28:36.190Z,11.23
2022-10-12T01:30:00.108Z,9.13
2022-10-12T01:31:19.185Z,10.80
2022-10-12T01:32:26.012Z,11.85
2022-10-12T01:33:38.183Z,11.45
2022-10-12T01:34:39.799Z,11.73
2022-10-12T01:35:55.678Z,12.50
2022-10-12T01:37:30.389Z,10.75
2022-10-12T01:38:48.375Z,11.35
2022-10-12T01:39:54.076Z,10.88
2022-10-12T01:41:13.227Z,9.73
2022-10-12T01:42:21.486Z,12.48
2022-10-12T01:43:23.745Z,9.45
2022-10-12T01:44:26.902Z,12.55
2022-10-12T01:45:28.549Z,13.50
2022-10-12T01:46:30.141Z,9.70
2022-10-12T01:47:33.997Z,11.18
2022-10-12T01:48:35.751Z,10.90
2022-10-12T01:49:38.154Z,12.55
2022-10-12T01:50:52.087Z,9.85
2022-10-12T01:51:59.205Z,10.35
2022-10-12T01:53:32.233Z,10.40
2022-10-12T01:54:54.167Z,11.90
2022-10-12T01:56:14.477Z,9.88
2022-10-12T01:57:35.217Z,9.63
2022-10-12T01:58:49.422Z,11.77
2022-10-12T02:00:10.448Z,10.77
2022-10-12T02:01:30.371Z,10.48
2022-10-12T02:03:10.414Z,11.70
2022-10-12T02:04:27.758Z,9.20
2022-10-12T02:05:56.928Z,10.13
2022-10-12T02:07:41.924Z,11.18
2022-10-12T02:09:01.693Z,9.70
2022-10-12T02:10:07.244Z,13.43
2022-10-12T02:11:15.086Z,12.38
2022-10-12T02:12:21.761Z,12.70
2022-10-12T02:13:27.642Z,10.32
2022-10-12T02:14:35.486Z,10.70
2022-10-12T02:15:40.038Z,11.05
2022-10-12T02:16:47.401Z,11.40
2022-10-12T02:17:51.082Z,10.85
2022-10-12T02:18:56.072Z,10.25
2022-10-12T02:19:59.763Z,13.38
2022-10-12T02:21:03.908Z,9.95
2022-10-12T02:22:07.786Z,10.68
2022-10-12T02:23:10.700Z,10.25
2022-10-12T02:24:14.153Z,12.35
2022-10-12T02:25:19.969Z,12.45
2022-10-12T02:26:22.076Z,14.95
2022-10-12T02:27:25.634Z,12.43
2022-10-12T02:28:29.764Z,10.60
2022-10-12T02:29:36.519Z,10.48
2022-10-12T02:31:01.846Z,11.13
2022-10-12T02:32:25.446Z,14.38
2022-10-12T02:33:40.367Z,9.85
2022-10-12T02:34:53.049Z,10.57
2022-10-12T02:36:05.442Z,16.23
2022-10-12T02:37:09.569Z,12.98
2022-10-12T02:38:19.086Z,11.98
2022-10-12T02:39:26.263Z,11.18
2022-10-12T02:40:50.730Z,14.43
2022-10-12T02:41:57.627Z,11.73
2022-10-12T02:43:10.837Z,9.85
2022-10-12T02:44:17.869Z,13.13
2022-10-12T02:45:21.560Z,9.98
2022-10-12T02:46:26.273Z,9.80
2022-10-12T02:47:33.707Z,13.88
2022-10-12T02:48:37.830Z,9.30
2022-10-12T02:49:41.606Z,10.57
2022-10-12T02:50:44.675Z,10.60
2022-10-12T02:51:47.115Z,12.63
2022-10-12T02:52:49.892Z,10.50
2022-10-12T02:53:52.211Z,12.57
2022-10-12T02:54:54.105Z,12.70
2022-10-12T02:56:02.006Z,12.07
2022-10-12T02:57:03.976Z,12.20
2022-10-12T02:58:05.977Z,11.10
2022-10-12T02:59:07.642Z,14.40
2022-10-12T03:00:10.165Z,10.50
2022-10-12T03:01:12.478Z,11.80
2022-10-12T03:02:14.151Z,10.45
2022-10-12T03:03:15.915Z,12.25
2022-10-12T03:04:17.618Z,12.68
2022-10-12T03:05:19.315Z,9.90
2022-10-12T03:06:21.025Z,9.95
2022-10-12T03:07:22.877Z,12.05
2022-10-12T03:08:24.778Z,12.50
2022-10-12T03:09:26.687Z,12.25
2022-10-12T03:10:28.362Z,11.63
2022-10-12T03:11:30.135Z,13.10
2022-10-12T03:12:31.802Z,11.90
2022-10-12T03:13:33.820Z,11.70
2022-10-12T03:14:37.397Z,10.55
2022-10-12T03:15:39.183Z,12.63
2022-10-12T03:16:41.517Z,13.13
2022-10-12T03:17:43.312Z,12.80
2022-10-12T03:18:46.576Z,12.55
2022-10-12T03:19:48.268Z,12.85
2022-10-12T03:20:49.941Z,15.90
2022-10-12T03:21:51.533Z,12.45
2022-10-12T03:22:53.848Z,14.27
2022-10-12T03:23:55.677Z,11.55
2022-10-12T03:25:00.213Z,12.02
2022-10-12T03:26:01.925Z,14.70
2022-10-12T03:27:03.765Z,12.48
2022-10-12T03:28:05.537Z,10.27
2022-10-12T03:29:09.427Z,14.15
2022-10-12T03:30:11.556Z,13.55
2022-10-12T03:31:13.549Z,11.77
2022-10-12T03:32:16.203Z,11.40
2022-10-12T03:33:17.909Z,12.18
2022-10-12T03:34:19.588Z,12.73
2022-10-12T03:35:21.226Z,12.55
2022-10-12T03:36:22.969Z,12.43
2022-10-12T03:37:24.610Z,11.38
2022-10-12T03:38:26.413Z,10.70
2022-10-12T03:39:28.431Z,10.75
2022-10-12T03:40:30.341Z,11.55
2022-10-12T03:41:32.018Z,9.65
2022-10-12T03:42:33.655Z,10.65
2022-10-12T03:43:35.475Z,10.38
2022-10-12T03:44:37.477Z,11.82
2022-10-12T03:45:39.974Z,14.00
2022-10-12T03:46:41.640Z,11.70
2022-10-12T03:47:43.541Z,14.75
2022-10-12T03:48:45.744Z,11.60
2022-10-12T03:49:47.447Z,12.77
2022-10-12T03:50:50.333Z,12.13
2022-10-12T03:51:52.319Z,12.32
2022-10-12T03:52:54.334Z,11.93
2022-10-12T03:53:56.073Z,11.02
2022-10-12T03:54:58.068Z,11.95
2022-10-12T03:56:08.260Z,12.65
2022-10-12T03:57:09.998Z,10.55
2022-10-12T03:58:11.956Z,12.63
2022-10-12T03:59:13.634Z,16.52
2022-10-12T04:00:15.629Z,12.50
2022-10-12T04:01:17.316Z,9.73
2022-10-12T04:02:18.937Z,10.70
2022-10-12T04:03:21.465Z,9.77
2022-10-12T04:04:23.127Z,12.35
2022-10-12T04:05:24.767Z,12.48
2022-10-12T04:06:26.531Z,12.02
2022-10-12T04:07:28.209Z,12.82
2022-10-12T04:08:30.680Z,11.90
2022-10-12T04:09:32.470Z,11.98
2022-10-12T04:10:34.487Z,11.55
2022-10-12T04:11:36.180Z,11.05
2022-10-12T04:12:37.883Z,14.93
2022-10-12T04:13:39.608Z,12.20
2022-10-12T04:14:41.300Z,10.48
2022-10-12T04:15:43.008Z,11.75
2022-10-12T04:16:44.642Z,12.43
2022-10-12T04:17:46.458Z,11.43
2022-10-12T04:18:48.115Z,13.75
2022-10-12T04:19:49.832Z,12.73
2022-10-12T04:20:51.603Z,14.40
2022-10-12T04:21:53.245Z,13.60
2022-10-12T04:22:54.903Z,12.20
2022-10-12T04:23:56.578Z,12.48
2022-10-12T04:24:58.237Z,17.80
2022-10-12T04:25:59.855Z,15.02
2022-10-12T04:27:01.512Z,12.05
2022-10-12T04:28:03.168Z,15.73
2022-10-12T04:29:05.216Z,10.65
2022-10-12T04:30:09.109Z,11.95
2022-10-12T04:31:10.817Z,9.93
2022-10-12T04:32:12.960Z,10.93
2022-10-12T04:33:15.071Z,10.70
2022-10-12T04:34:16.791Z,12.13
2022-10-12T04:35:18.812Z,10.32
2022-10-12T04:36:20.557Z,11.23
2022-10-12T04:37:22.225Z,11.57
2022-10-12T04:38:24.398Z,13.27
2022-10-12T04:39:26.030Z,9.75
2022-10-12T04:40:27.797Z,10.23
2022-10-12T04:41:29.668Z,13.18
2022-10-12T04:42:31.336Z,12.07
2022-10-12T04:43:33.064Z,13.65
2022-10-12T04:44:35.081Z,12.40
2022-10-12T04:45:36.711Z,10.43
2022-10-12T04:46:38.373Z,11.40
2022-10-12T04:47:40.645Z,10.93
2022-10-12T04:48:42.727Z,11.65
2022-10-12T04:49:44.364Z,16.70
2022-10-12T04:50:46.004Z,13.07
2022-10-12T04:51:47.691Z,13.60
2022-10-12T04:52:49.389Z,10.45
2022-10-12T04:53:51.659Z,10.45
2022-10-12T04:54:53.474Z,12.95
2022-10-12T04:55:55.182Z,12.60
2022-10-12T04:56:56.889Z,10.68
2022-10-12T04:57:58.664Z,13.23
2022-10-12T04:59:00.335Z,9.68
2022-10-12T05:00:02.265Z,11.10
2022-10-12T05:01:05.201Z,11.15
2022-10-12T05:02:06.910Z,14.10
2022-10-12T05:03:08.814Z,12.77
2022-10-12T05:04:10.550Z,13.02
2022-10-12T05:05:12.361Z,12.52
2022-10-12T05:06:14.037Z,16.60
2022-10-12T05:07:15.861Z,10.25
2022-10-12T05:08:17.977Z,12.60
2022-10-12T05:09:19.674Z,10.75
2022-10-12T05:10:21.620Z,12.35
2022-10-12T05:11:23.591Z,12.10
2022-10-12T05:12:25.228Z,13.40
2022-10-12T05:13:27.311Z,12.15
2022-10-12T05:14:33.501Z,10.73
2022-10-12T05:15:37.676Z,12.35
2022-10-12T05:16:39.419Z,11.15
2022-10-12T05:17:41.478Z,13.75
2022-10-12T05:18:43.241Z,14.18
2022-10-12T05:19:44.918Z,10.77
2022-10-12T05:20:46.782Z,11.63
2022-10-12T05:21:48.613Z,14.10
2022-10-12T05:22:50.315Z,12.32
2022-10-12T05:23:53.050Z,13.38
2022-10-12T05:24:54.844Z,12.40
2022-10-12T05:25:56.772Z,13.15
2022-10-12T05:26:58.533Z,13.75
2022-10-12T05:28:00.530Z,11.23
2022-10-12T05:29:02.389Z,10.30
2022-10-12T05:30:05.422Z,12.95
2022-10-12T05:31:07.170Z,10.95
2022-10-12T05:32:08.873Z,11.00
2022-10-12T05:33:10.814Z,12.73
2022-10-12T05:34:12.533Z,13.25
2022-10-12T05:35:14.496Z,15.45
2022-10-12T05:36:16.220Z,12.75
2022-10-12T05:37:18.049Z,13.05
2022-10-12T05:38:19.666Z,11.13
2022-10-12T05:39:21.336Z,13.13
2022-10-12T05:40:23.044Z,13.23
2022-10-12T05:41:24.832Z,11.90
2022-10-12T05:42:26.521Z,12.95
2022-10-12T05:43:28.823Z,11.18
2022-10-12T05:44:30.686Z,15.77
2022-10-12T05:45:32.587Z,11.85
2022-10-12T05:46:34.372Z,11.10
2022-10-12T05:47:36.148Z,10.98
2022-10-12T05:48:37.916Z,11.65
2022-10-12T05:49:39.588Z,11.40
2022-10-12T05:50:41.200Z,12.57
2022-10-12T05:51:42.875Z,13.35
2022-10-12T05:52:44.946Z,11.27
2022-10-12T05:53:46.562Z,13.55
2022-10-12T05:54:48.205Z,12.95
2022-10-12T05:55:57.972Z,11.68
2022-10-12T05:56:59.561Z,11.88
2022-10-12T05:58:01.274Z,15.18
2022-10-12T05:59:04.017Z,16.33
2022-10-12T06:00:08.784Z,12.55
2022-10-12T06:01:13.077Z,9.82
2022-10-12T06:02:16.707Z,13.43
2022-10-12T06:03:22.915Z,14.65
2022-10-12T06:04:27.502Z,13.90
2022-10-12T06:05:29.296Z,11.13
2022-10-12T06:06:31.027Z,10.95
2022-10-12T06:07:32.840Z,13.73
2022-10-12T06:08:35.585Z,10.98
2022-10-12T06:09:40.099Z,11.75
2022-10-12T06:10:47.265Z,12.93
2022-10-12T06:11:51.654Z,14.23
2022-10-12T06:12:53.336Z,14.45
2022-10-12T06:13:55.116Z,13.00
2022-10-12T06:14:56.791Z,11.77
2022-10-12T06:15:58.574Z,10.55
2022-10-12T06:17:00.266Z,13.00
2022-10-12T06:18:02.125Z,11.52
2022-10-12T06:19:04.017Z,11.63
2022-10-12T06:20:06.110Z,12.73
2022-10-12T06:21:32.583Z,10.70
2022-10-12T06:22:29.362Z,10.95
2022-10-12T06:23:31.048Z,13.05
2022-10-12T06:24:32.650Z,13.98
2022-10-12T06:25:34.274Z,13.55
2022-10-12T06:26:35.872Z,11.82
2022-10-12T06:27:37.529Z,14.50
2022-10-12T06:28:39.609Z,12.93
2022-10-12T06:29:41.627Z,15.50
2022-10-12T06:30:43.436Z,12.85
2022-10-12T06:31:51.213Z,12.55
2022-10-12T06:32:53.377Z,14.65
2022-10-12T06:33:55.254Z,14.48
2022-10-12T06:34:56.910Z,16.05
2022-10-12T06:35:58.663Z,15.63
2022-10-12T06:37:02.087Z,13.13
2022-10-12T06:38:04.001Z,15.93
2022-10-12T06:39:05.690Z,12.77
2022-10-12T06:40:07.874Z,10.80
2022-10-12T06:41:09.502Z,11.27
2022-10-12T06:42:11.913Z,12.40
2022-10-12T06:43:13.609Z,12.40
2022-10-12T06:44:15.316Z,11.48
2022-10-12T06:45:17.403Z,12.00
2022-10-12T06:46:19.004Z,12.77
2022-10-12T06:47:20.903Z,14.20
2022-10-12T06:48:22.913Z,12.55
2022-10-12T06:49:24.636Z,12.65
2022-10-12T06:50:27.077Z,14.02
2022-10-12T06:51:28.677Z,12.65
2022-10-12T06:52:30.342Z,12.35
2022-10-12T06:53:33.163Z,13.57
2022-10-12T06:54:34.769Z,14.13
2022-10-12T06:55:39.843Z,17.15
2022-10-12T06:56:41.558Z,14.45
2022-10-12T06:57:43.169Z,15.27
2022-10-12T06:58:44.825Z,11.07
2022-10-12T06:59:46.494Z,15.50
2022-10-12T07:00:48.357Z,12.10
2022-10-12T07:01:51.654Z,17.17
2022-10-12T07:02:53.595Z,19.13
2022-10-12T07:04:00.390Z,16.23
2022-10-12T07:05:03.313Z,15.57
2022-10-12T07:06:09.811Z,12.13
2022-10-12T07:07:12.896Z,16.15
2022-10-12T07:08:14.856Z,10.88
2022-10-12T07:09:17.193Z,12.85
2022-10-12T07:10:20.508Z,15.15
2022-10-12T07:11:22.901Z,16.08
2022-10-12T07:12:24.681Z,11.90
2022-10-12T07:13:26.643Z,13.50
2022-10-12T07:14:28.762Z,12.73
2022-10-12T07:15:31.464Z,15.25
2022-10-12T07:16:34.733Z,13.32
2022-10-12T07:17:36.915Z,14.65
2022-10-12T07:18:40.131Z,14.10
2022-10-12T07:19:42.089Z,14.07
2022-10-12T07:20:43.753Z,19.10
2022-10-12T07:21:45.466Z,15.80
2022-10-12T07:22:47.122Z,16.52
2022-10-12T07:23:48.944Z,14.65
2022-10-12T07:24:50.760Z,12.90
2022-10-12T07:25:53.194Z,15.52
2022-10-12T07:26:54.871Z,16.40
2022-10-12T07:27:58.007Z,14.73
2022-10-12T07:29:02.183Z,15.88
2022-10-12T07:30:04.556Z,15.00
2022-10-12T07:31:08.204Z,15.65
2022-10-12T07:32:10.219Z,16.83
2022-10-12T07:33:12.597Z,13.20
2022-10-12T07:34:14.440Z,17.05
2022-10-12T07:35:16.136Z,14.80
2022-10-12T07:36:21.602Z,15.18
2022-10-12T07:37:23.915Z,19.35
2022-10-12T07:38:25.848Z,18.23
2022-10-12T07:39:27.946Z,15.27
2022-10-12T07:40:30.261Z,19.02
2022-10-12T07:41:32.696Z,17.35
2022-10-12T07:42:34.400Z,20.25
2022-10-12T07:43:36.022Z,18.45
2022-10-12T07:44:37.726Z,19.58
2022-10-12T07:45:39.613Z,20.15
2022-10-12T07:46:41.392Z,18.52
2022-10-12T07:47:42.986Z,21.30
2022-10-12T07:48:49.995Z,19.27
2022-10-12T07:49:52.173Z,20.65
2022-10-12T07:50:53.824Z,18.80
2022-10-12T07:51:56.507Z,24.80
2022-10-12T07:52:58.176Z,20.85
2022-10-12T07:54:02.660Z,15.15
2022-10-12T07:55:04.880Z,19.65
2022-10-12T07:56:14.931Z,17.38
2022-10-12T07:57:17.686Z,19.20
2022-10-12T07:58:19.508Z,19.25
2022-10-12T07:59:21.253Z,17.38
2022-10-12T08:00:22.860Z,20.88
2022-10-12T08:01:28.691Z,15.73
2022-10-12T08:02:30.781Z,19.42
2022-10-12T08:03:32.486Z,18.13
2022-10-12T08:04:34.085Z,13.82
2022-10-12T08:05:37.978Z,16.20
2022-10-12T08:06:43.460Z,20.33
2022-10-12T08:07:45.318Z,18.00
2022-10-12T08:08:47.666Z,15.50
2022-10-12T08:09:49.686Z,19.95
2022-10-12T08:10:51.297Z,15.75
2022-10-12T08:11:53.014Z,17.15
2022-10-12T08:12:54.621Z,20.38
2022-10-12T08:13:56.385Z,18.10
2022-10-12T08:14:58.017Z,15.73
2022-10-12T08:16:00.449Z,13.38
2022-10-12T08:17:02.386Z,17.55
2022-10-12T08:18:04.136Z,17.52
2022-10-12T08:19:05.774Z,20.23
2022-10-12T08:20:08.301Z,17.35
2022-10-12T08:21:11.986Z,20.73
2022-10-12T08:22:13.706Z,18.35
2022-10-12T08:23:15.707Z,22.27
2022-10-12T08:24:18.856Z,16.60
2022-10-12T08:25:20.553Z,15.57
2022-10-12T08:26:22.203Z,16.83
2022-10-12T08:27:23.946Z,16.40
2022-10-12T08:28:26.045Z,16.52
2022-10-12T08:29:27.684Z,18.05
2022-10-12T08:30:29.418Z,15.90
2022-10-12T08:31:31.376Z,21.60
2022-10-12T08:32:33.608Z,18.38
2022-10-12T08:33:35.801Z,19.38
2022-10-12T08:34:37.397Z,19.15
2022-10-12T08:35:43.539Z,17.90
2022-10-12T08:36:45.194Z,20.65
2022-10-12T08:37:48.504Z,17.23
2022-10-12T08:38:55.093Z,18.98
2022-10-12T08:40:00.888Z,18.00
2022-10-12T08:41:26.287Z,17.70
2022-10-12T08:42:35.876Z,19.15
2022-10-12T08:43:40.530Z,18.40
2022-10-12T08:44:57.622Z,19.98
2022-10-12T08:46:02.601Z,19.70
2022-10-12T08:47:14.421Z,21.45
2022-10-12T08:48:47.848Z,21.48
2022-10-12T08:49:51.721Z,19.45
2022-10-12T08:51:00.547Z,20.17
2022-10-12T08:52:06.817Z,18.42
2022-10-12T08:53:19.573Z,18.60
2022-10-12T08:54:26.383Z,17.45
2022-10-12T08:55:49.748Z,19.63
2022-10-12T08:56:54.430Z,17.10
2022-10-12T08:57:56.911Z,15.65
2022-10-12T08:58:58.660Z,16.55
2022-10-12T09:00:01.558Z,23.25
2022-10-12T09:01:27.776Z,19.58
2022-10-12T09:03:09.022Z,15.65
2022-10-12T09:04:32.340Z,17.15
2022-10-12T09:05:49.994Z,13.95
2022-10-12T09:07:40.574Z,17.60
2022-10-12T09:09:02.655Z,16.05
2022-10-12T09:10:46.179Z,17.55
2022-10-12T09:11:56.893Z,16.42
2022-10-12T09:13:15.154Z,15.73
2022-10-12T09:14:33.262Z,15.68
2022-10-12T09:15:39.144Z,16.67
2022-10-12T09:16:47.875Z,14.07
2022-10-12T09:17:53.230Z,14.52
2022-10-12T09:19:01.644Z,13.52
2022-10-12T09:20:10.809Z,21.73
2022-10-12T09:21:21.414Z,16.55
2022-10-12T09:22:23.085Z,15.80
2022-10-12T09:23:39.278Z,15.90
2022-10-12T09:24:41.166Z,18.45
2022-10-12T09:25:44.022Z,13.60
2022-10-12T09:26:50.645Z,14.82
2022-10-12T09:27:53.570Z,12.32
2022-10-12T09:28:56.936Z,13.75
2022-10-12T09:30:03.558Z,15.63
2022-10-12T09:31:30.157Z,19.65
2022-10-12T09:32:37.546Z,16.70
2022-10-12T09:33:46.010Z,15.73
2022-10-12T09:34:49.000Z,19.75
2022-10-12T09:35:52.773Z,16.35
2022-10-12T09:36:55.547Z,13.63
2022-10-12T09:37:57.385Z,13.25
2022-10-12T09:39:02.442Z,14.65
2022-10-12T09:40:04.616Z,16.30
2022-10-12T09:41:06.348Z,17.58
2022-10-12T09:42:10.157Z,17.40
2022-10-12T09:43:14.041Z,16.15
2022-10-12T09:44:42.267Z,16.83
2022-10-12T09:45:43.890Z,12.18
2022-10-12T09:47:29.273Z,14.00
2022-10-12T09:48:31.593Z,18.17
2022-10-12T09:49:43.815Z,17.65
2022-10-12T09:50:58.352Z,18.50
2022-10-12T09:52:00.400Z,18.17
2022-10-12T09:53:02.130Z,19.65
2022-10-12T09:54:05.400Z,16.35
2022-10-12T09:55:29.902Z,14.02
2022-10-12T09:56:49.979Z,18.38
2022-10-12T09:57:58.752Z,14.05
2022-10-12T09:59:03.919Z,17.00
2022-10-12T10:00:27.122Z,16.73
2022-10-12T10:01:34.369Z,14.48
2022-10-12T10:02:48.130Z,14.63
2022-10-12T10:04:07.063Z,15.77
2022-10-12T10:05:38.129Z,15.20
2022-10-12T10:06:43.234Z,14.23
2022-10-12T10:07:46.056Z,13.48
2022-10-12T10:08:48.521Z,12.15
2022-10-12T10:10:10.081Z,13.55
2022-10-12T10:11:19.272Z,13.63
2022-10-12T10:12:24.171Z,14.40
2022-10-12T10:13:32.630Z,15.65
2022-10-12T10:14:35.925Z,13.32
2022-10-12T10:15:40.940Z,13.15
2022-10-12T10:16:54.895Z,11.48
2022-10-12T10:18:02.072Z,13.85
2022-10-12T10:19:03.792Z,12.65
2022-10-12T10:20:07.670Z,14.43
2022-10-12T10:21:14.612Z,12.90
2022-10-12T10:22:17.862Z,11.75
2022-10-12T10:23:43.943Z,14.23
2022-10-12T10:24:51.757Z,12.07
2022-10-12T10:25:58.549Z,12.23
2022-10-12T10:27:06.080Z,13.60
2022-10-12T10:28:23.980Z,14.13
2022-10-12T10:29:34.409Z,10.25
2022-10-12T10:30:40.614Z,13.68
2022-10-12T10:31:45.940Z,11.88
2022-10-12T10:32:48.585Z,11.38
2022-10-12T10:34:19.046Z,10.68
2022-10-12T10:35:22.430Z,11.85
2022-10-12T10:36:26.949Z,13.55
2022-10-12T10:37:30.127Z,12.13
2022-10-12T10:38:46.233Z,13.57
2022-10-12T10:39:51.941Z,14.23
2022-10-12T10:40:57.176Z,12.88
2022-10-12T10:42:17.729Z,15.30
2022-10-12T10:43:28.008Z,10.40
2022-10-12T10:44:32.676Z,13.20
2022-10-12T10:45:46.670Z,16.25
2022-10-12T10:46:48.586Z,12.68
2022-10-12T10:47:50.353Z,11.23
2022-10-12T10:48:58.366Z,11.13
2022-10-12T10:50:02.861Z,9.18
2022-10-12T10:51:06.971Z,10.60
2022-10-12T10:52:23.809Z,9.63
2022-10-12T10:53:31.093Z,7.07
2022-10-12T10:55:00.284Z,10.05
2022-10-12T10:56:11.410Z,9.45
2022-10-12T10:57:20.440Z,8.48
2022-10-12T10:58:38.957Z,10.77
2022-10-12T10:59:40.623Z,9.13
2022-10-12T11:00:45.936Z,15.35
2022-10-12T11:01:53.491Z,10.35
2022-10-12T11:02:57.296Z,10.23
2022-10-12T11:04:09.298Z,9.98
2022-10-12T11:05:23.585Z,11.52
2022-10-12T11:06:49.067Z,13.57
2022-10-12T11:07:50.636Z,9.05
2022-10-12T11:09:02.268Z,11.60
2022-10-12T11:10:14.923Z,11.23
2022-10-12T11:11:23.736Z,11.00
2022-10-12T11:12:36.075Z,10.98
2022-10-12T11:14:02.299Z,12.20
2022-10-12T11:15:29.001Z,12.63
2022-10-12T11:16:39.820Z,10.05
2022-10-12T11:17:46.517Z,11.90
2022-10-12T11:18:59.822Z,11.90
2022-10-12T11:20:26.164Z,13.27
2022-10-12T11:21:55.530Z,11.38
2022-10-12T11:23:18.598Z,10.60
2022-10-12T11:24:43.187Z,11.05
2022-10-12T11:26:00.335Z,12.00
2022-10-12T11:27:23.172Z,12.07
2022-10-12T11:28:31.135Z,12.75
2022-10-12T11:29:35.687Z,12.30
2022-10-12T11:30:43.909Z,10.27
2022-10-12T11:32:07.660Z,9.80
2022-10-12T11:33:19.536Z,13.15
2022-10-12T11:34:23.952Z,10.35
2022-10-12T11:35:36.117Z,12.45
2022-10-12T11:36:47.344Z,10.50
2022-10-12T11:38:19.949Z,12.15
2022-10-12T11:39:34.563Z,11.00
2022-10-12T11:41:05.554Z,12.00
2022-10-12T11:42:22.888Z,11.18
2022-10-12T11:43:39.284Z,11.20
2022-10-12T11:44:46.182Z,13.75
2022-10-12T11:45:52.335Z,12.90
2022-10-12T11:46:56.344Z,12.85
2022-10-12T11:48:05.151Z,12.05
2022-10-12T11:49:21.806Z,14.65
2022-10-12T11:50:38.463Z,9.95
2022-10-12T11:51:41.025Z,10.50
2022-10-12T11:52:47.039Z,11.35
2022-10-12T11:54:20.544Z,12.57
2022-10-12T11:55:46.449Z,11.18
2022-10-12T11:56:52.673Z,10.13
2022-10-12T11:57:58.278Z,9.23
2022-10-12T11:59:32.745Z,10.45
2022-10-12T12:00:58.777Z,9.05
2022-10-12T12:02:42.274Z,10.18
2022-10-12T12:03:43.876Z,11.45
2022-10-12T12:04:48.074Z,11.85
2022-10-12T12:05:49.962Z,12.68
2022-10-12T12:06:56.299Z,10.80
2022-10-12T12:07:59.803Z,9.45
2022-10-12T12:09:01.388Z,6.97
2022-10-12T12:10:25.598Z,7.50
2022-10-12T12:11:29.824Z,10.05
2022-10-12T12:12:31.506Z,8.05
2022-10-12T12:13:33.262Z,8.43
2022-10-12T12:14:44.601Z,11.68
2022-10-12T12:15:52.227Z,8.70
2022-10-12T12:17:15.419Z,9.63
2022-10-12T12:18:22.746Z,10.07
2022-10-12T12:19:41.061Z,11.55
2022-10-12T12:20:43.078Z,11.70
2022-10-12T12:22:10.144Z,12.80
2022-10-12T12:23:41.087Z,9.57
2022-10-12T12:25:06.950Z,10.20
2022-10-12T12:26:16.262Z,10.73
2022-10-12T12:27:40.049Z,13.13
2022-10-12T12:28:48.394Z,9.95
2022-10-12T12:29:53.667Z,8.80
2022-10-12T12:31:02.073Z,8.23
2022-10-12T12:32:03.740Z,10.60
2022-10-12T12:33:25.617Z,11.48
2022-10-12T12:34:28.934Z,13.00
2022-10-12T12:35:30.632Z,10.00
2022-10-12T12:36:34.089Z,12.93
2022-10-12T12:37:37.667Z,10.65
2022-10-12T12:38:45.459Z,11.10
2022-10-12T12:39:53.646Z,9.07
2022-10-12T12:40:57.296Z,9.65
2022-10-12T12:42:02.260Z,10.13
2022-10-12T12:43:42.066Z,10.68
2022-10-12T12:44:44.726Z,11.35
2022-10-12T12:46:01.855Z,11.90
2022-10-12T12:47:08.560Z,10.90
2022-10-12T12:48:41.265Z,9.82
2022-10-12T12:50:23.313Z,9.75
2022-10-12T12:51:40.482Z,10.88
2022-10-12T12:52:42.292Z,10.55
2022-10-12T12:53:58.064Z,10.45
2022-10-12T12:55:20.698Z,13.30
2022-10-12T12:56:42.369Z,9.02
2022-10-12T12:58:04.344Z,9.50
2022-10-12T12:59:12.355Z,10.20
2022-10-12T13:00:22.416Z,10.52
2022-10-12T13:01:51.821Z,8.90
2022-10-12T13:03:25.697Z,9.90
2022-10-12T13:05:00.777Z,9.25
2022-10-12T13:06:24.009Z,10.25
2022-10-12T13:07:37.182Z,12.63
2022-10-12T13:09:00.401Z,10.95
2022-10-12T13:10:41.775Z,8.52
2022-10-12T13:12:09.301Z,9.35
2022-10-12T13:13:26.380Z,9.40
2022-10-12T13:14:59.378Z,9.43
2022-10-12T13:17:30.745Z,8.60
2022-10-12T13:18:48.395Z,8.10
2022-10-12T13:19:53.559Z,7.60
2022-10-12T13:20:55.350Z,7.93
2022-10-12T13:21:58.437Z,8.45
2022-10-12T13:23:03.446Z,10.23
2022-10-12T13:24:11.943Z,7.90
2022-10-12T13:25:32.519Z,9.15
2022-10-12T13:26:36.207Z,9.88
2022-10-12T13:27:45.717Z,7.32
2022-10-12T13:28:49.739Z,11.30
2022-10-12T13:29:57.985Z,11.50
2022-10-12T13:31:19.298Z,7.85
2022-10-12T13:32:54.764Z,11.73
2022-10-12T13:34:20.651Z,6.18
2022-10-12T13:35:38.619Z,7.00
2022-10-12T13:37:08.365Z,8.93
2022-10-12T13:38:21.282Z,9.68
2022-10-12T13:39:23.018Z,11.60
2022-10-12T13:40:54.720Z,7.53
2022-10-12T13:42:00.876Z,8.23
2022-10-12T13:43:37.803Z,12.60
2022-10-12T13:44:42.017Z,16.42
2022-10-12T13:45:47.914Z,14.05
2022-10-12T13:46:54.817Z,12.65
2022-10-12T13:48:04.437Z,10.02
2022-10-12T13:49:15.460Z,10.45
2022-10-12T13:50:21.013Z,12.70
2022-10-12T13:51:25.633Z,10.90
2022-10-12T13:52:32.968Z,11.63
2022-10-12T13:53:38.010Z,10.65
2022-10-12T13:54:43.930Z,12.82
2022-10-12T13:56:03.718Z,11.38
2022-10-12T13:57:27.068Z,10.15
2022-10-12T13:58:31.427Z,11.20
2022-10-12T13:59:37.661Z,11.00
2022-10-12T14:00:47.535Z,8.48
2022-10-12T14:01:55.903Z,9.05
2022-10-12T14:03:02.945Z,10.20
2022-10-12T14:04:05.547Z,8.60
2022-10-12T14:05:20.215Z,11.32
2022-10-12T14:06:28.892Z,7.38
2022-10-12T14:07:35.597Z,9.55
2022-10-12T14:08:37.553Z,7.95
2022-10-12T14:09:46.402Z,8.18
2022-10-12T14:10:49.425Z,11.20
2022-10-12T14:11:53.482Z,9.10
2022-10-12T14:12:56.260Z,9.88
2022-10-12T14:13:58.483Z,10.85
2022-10-12T14:15:00.917Z,9.25
2022-10-12T14:16:05.354Z,9.95
2022-10-12T14:17:07.144Z,12.70
2022-10-12T14:18:31.363Z,7.63
2022-10-12T14:19:52.014Z,8.05
2022-10-12T14:21:10.125Z,8.95
2022-10-12T14:22:18.880Z,9.57
2022-10-12T14:23:23.041Z,10.05
2022-10-12T14:24:25.196Z,9.20
2022-10-12T14:25:31.740Z,8.63
2022-10-12T14:26:42.268Z,10.70
2022-10-12T14:27:44.043Z,8.80
2022-10-12T14:28:45.791Z,14.50
2022-10-12T14:29:47.974Z,9.35
2022-10-12T14:30:52.748Z,9.00